createdAt,value
2017-12-29T00:00:08.197Z,14.10
2017-12-29T00:02:36.539Z,9.73
2017-12-29T00:05:04.955Z,16.50
2017-12-29T00:07:33.364Z,12.10
2017-12-29T00:10:01.690Z,14.53
2017-12-29T00:12:30.071Z,7.27
2017-12-29T00:14:58.883Z,13.27
2017-12-29T00:17:27.247Z,7.67
2017-12-29T00:19:55.584Z,10.40
2017-12-29T00:22:23.960Z,10.70
2017-12-29T00:24:52.656Z,7.57
2017-12-29T00:27:21.149Z,9.27
2017-12-29T00:29:49.566Z,12.30
2017-12-29T00:32:17.963Z,7.97
2017-12-29T00:34:47.179Z,5.10
2017-12-29T00:37:15.595Z,9.87
2017-12-29T00:39:44.111Z,8.10
2017-12-29T00:42:12.473Z,9.57
2017-12-29T00:44:40.874Z,9.43
2017-12-29T00:47:09.271Z,11.23
2017-12-29T00:49:37.638Z,7.70
2017-12-29T00:52:05.963Z,9.73
2017-12-29T00:54:34.281Z,7.53
2017-12-29T00:57:03.062Z,9.70
2017-12-29T00:59:31.423Z,6.97
2017-12-29T01:01:59.829Z,10.27
2017-12-29T01:04:28.196Z,6.07
2017-12-29T01:06:57.355Z,6.23
2017-12-29T01:09:25.733Z,5.63
2017-12-29T01:11:54.703Z,12.37
2017-12-29T01:14:23.083Z,8.47
2017-12-29T01:16:51.425Z,6.70
2017-12-29T01:19:19.792Z,6.73
2017-12-29T01:21:48.889Z,7.67
2017-12-29T01:24:17.817Z,6.03
2017-12-29T01:26:46.165Z,8.93
2017-12-29T01:29:16.025Z,13.07
2017-12-29T01:31:44.428Z,6.30
2017-12-29T01:34:12.795Z,9.47
2017-12-29T01:36:41.281Z,8.77
2017-12-29T01:39:09.713Z,8.20
2017-12-29T01:41:38.842Z,7.20
2017-12-29T01:44:07.233Z,8.90
2017-12-29T01:46:35.621Z,8.30
2017-12-29T01:49:04.021Z,20.07
2017-12-29T01:51:32.375Z,9.73
2017-12-29T01:54:00.701Z,9.53
2017-12-29T01:56:29.879Z,14.93
2017-12-29T01:58:58.225Z,11.47
2017-12-29T02:01:26.704Z,9.57
2017-12-29T02:03:55.083Z,4.63
2017-12-29T02:06:23.478Z,6.13
2017-12-29T02:08:51.855Z,7.30
2017-12-29T02:11:20.297Z,7.20
2017-12-29T02:13:48.634Z,8.47
2017-12-29T02:16:17.008Z,7.77
2017-12-29T02:18:45.396Z,6.23
2017-12-29T02:21:13.814Z,6.80
2017-12-29T02:23:42.168Z,5.40
2017-12-29T02:26:11.416Z,6.20
2017-12-29T02:28:40.540Z,4.53
2017-12-29T02:31:09.676Z,4.93
2017-12-29T02:33:38.001Z,6.30
2017-12-29T02:36:06.398Z,5.40
2017-12-29T02:38:35.562Z,10.10
2017-12-29T02:41:03.928Z,5.87
2017-12-29T02:43:32.241Z,7.53
2017-12-29T02:46:00.603Z,9.80
2017-12-29T02:48:28.992Z,7.10
2017-12-29T02:50:58.125Z,5.07
2017-12-29T02:53:26.515Z,18.27
2017-12-29T02:55:55.610Z,7.07
2017-12-29T02:58:23.977Z,7.00
2017-12-29T03:00:53.099Z,14.47
2017-12-29T03:03:21.457Z,7.90
2017-12-29T03:05:50.535Z,7.00
2017-12-29T03:08:18.878Z,10.20
2017-12-29T03:10:47.272Z,8.30
2017-12-29T03:13:15.594Z,7.00
2017-12-29T03:15:44.829Z,10.77
2017-12-29T03:18:13.171Z,9.07
2017-12-29T03:20:41.484Z,9.37
2017-12-29T03:23:09.856Z,6.77
2017-12-29T03:25:38.246Z,5.73
2017-12-29T03:28:06.640Z,8.97
2017-12-29T03:30:35.021Z,14.90
2017-12-29T03:33:03.403Z,4.70
2017-12-29T03:35:31.757Z,5.57
2017-12-29T03:38:00.889Z,8.30
2017-12-29T03:40:29.271Z,11.43
2017-12-29T03:42:57.635Z,12.60
2017-12-29T03:45:25.982Z,6.27
2017-12-29T03:47:54.347Z,15.70
2017-12-29T03:50:22.743Z,10.00
2017-12-29T03:52:51.078Z,7.47
2017-12-29T03:55:19.452Z,5.67
2017-12-29T03:57:47.793Z,13.07
2017-12-29T04:00:16.171Z,8.83
2017-12-29T04:02:45.364Z,7.10
2017-12-29T04:05:13.713Z,7.80
2017-12-29T04:07:42.099Z,5.30
2017-12-29T04:10:10.441Z,12.27
2017-12-29T04:12:38.828Z,9.60
2017-12-29T04:15:07.210Z,9.60
2017-12-29T04:17:35.555Z,13.47
2017-12-29T04:20:03.922Z,7.77
2017-12-29T04:22:33.078Z,11.20
2017-12-29T04:25:01.408Z,5.80
2017-12-29T04:27:29.774Z,7.27
2017-12-29T04:29:58.155Z,7.97
2017-12-29T04:32:26.567Z,14.03
2017-12-29T04:34:54.874Z,12.23
2017-12-29T04:37:23.253Z,6.60
2017-12-29T04:39:52.416Z,8.30
2017-12-29T04:42:20.769Z,7.20
2017-12-29T04:44:49.147Z,11.47
2017-12-29T04:47:17.485Z,11.00
2017-12-29T04:49:45.845Z,11.73
2017-12-29T04:52:14.209Z,11.37
2017-12-29T04:54:42.510Z,6.50
2017-12-29T04:57:10.918Z,10.20
2017-12-29T04:59:39.319Z,10.97
2017-12-29T05:02:08.533Z,4.63
2017-12-29T05:04:36.863Z,13.93
2017-12-29T05:07:05.202Z,8.90
2017-12-29T05:09:33.506Z,12.90
2017-12-29T05:12:01.854Z,15.17
2017-12-29T05:14:30.169Z,7.60
2017-12-29T05:16:58.478Z,12.30
2017-12-29T05:19:26.853Z,10.67
2017-12-29T05:21:55.226Z,13.20
2017-12-29T05:24:23.648Z,12.90
2017-12-29T05:26:52.114Z,12.20
2017-12-29T05:29:20.479Z,14.27
2017-12-29T05:31:48.833Z,16.80
2017-12-29T05:34:17.186Z,22.13
2017-12-29T05:36:45.573Z,14.33
2017-12-29T05:39:13.910Z,23.47
2017-12-29T05:41:42.260Z,14.63
2017-12-29T05:44:10.605Z,16.07
2017-12-29T05:46:39.705Z,21.47
2017-12-29T05:49:08.036Z,19.07
2017-12-29T05:51:36.459Z,20.43
2017-12-29T05:54:05.552Z,18.87
2017-12-29T05:56:35.428Z,22.60
2017-12-29T05:59:03.768Z,20.30
2017-12-29T06:01:32.144Z,21.03
2017-12-29T06:04:01.298Z,19.13
2017-12-29T06:06:30.316Z,20.40
2017-12-29T06:08:58.669Z,19.77
2017-12-29T06:11:27.006Z,18.93
2017-12-29T06:13:56.102Z,18.60
2017-12-29T06:16:25.219Z,25.20
2017-12-29T06:18:54.384Z,19.63
2017-12-29T06:21:22.728Z,21.23
2017-12-29T06:23:51.058Z,18.60
2017-12-29T06:26:20.190Z,14.50
2017-12-29T06:28:48.528Z,15.60
2017-12-29T06:31:16.890Z,20.23
2017-12-29T06:33:45.234Z,14.70
2017-12-29T06:36:13.737Z,22.83
2017-12-29T06:38:42.078Z,18.40
2017-12-29T06:41:11.207Z,13.70
2017-12-29T06:43:39.600Z,20.90
2017-12-29T06:46:08.012Z,21.77
2017-12-29T06:48:36.386Z,18.37
2017-12-29T06:51:05.521Z,17.10
2017-12-29T06:53:33.966Z,25.87
2017-12-29T06:56:02.294Z,16.93
2017-12-29T06:58:30.694Z,18.87
2017-12-29T07:00:59.078Z,21.27
2017-12-29T07:03:27.414Z,22.00
2017-12-29T07:05:56.554Z,19.90
2017-12-29T07:08:24.906Z,18.20
2017-12-29T07:10:54.900Z,18.73
2017-12-29T07:13:24.035Z,16.70
2017-12-29T07:15:52.427Z,21.40
2017-12-29T07:18:20.814Z,20.57
2017-12-29T07:20:49.196Z,22.77
2017-12-29T07:23:17.606Z,24.13
2017-12-29T07:25:45.983Z,25.07
2017-12-29T07:28:14.325Z,24.73
2017-12-29T07:30:43.472Z,25.60
2017-12-29T07:33:11.920Z,22.40
2017-12-29T07:35:40.356Z,26.73
2017-12-29T07:38:08.736Z,24.80
2017-12-29T07:40:37.855Z,23.73
2017-12-29T07:43:06.969Z,25.10
2017-12-29T07:45:36.086Z,27.87
2017-12-29T07:48:04.569Z,28.77
2017-12-29T07:50:32.932Z,25.20
2017-12-29T07:53:01.358Z,23.20
2017-12-29T07:55:29.686Z,25.77
2017-12-29T07:57:58.825Z,32.80
2017-12-29T08:00:27.196Z,27.03
2017-12-29T08:02:56.574Z,30.63
2017-12-29T08:05:24.960Z,22.63
2017-12-29T08:07:53.351Z,30.10
2017-12-29T08:10:22.510Z,21.70
2017-12-29T08:12:51.027Z,24.60
2017-12-29T08:15:19.384Z,25.77
2017-12-29T08:17:47.720Z,18.20
2017-12-29T08:20:16.134Z,19.70
2017-12-29T08:22:44.454Z,21.20
2017-12-29T08:25:13.609Z,22.67
2017-12-29T08:27:42.802Z,21.67
2017-12-29T08:30:11.206Z,20.60
2017-12-29T08:32:39.546Z,22.27
2017-12-29T08:35:08.031Z,17.47
2017-12-29T08:37:36.406Z,18.37
2017-12-29T08:40:08.088Z,19.90
2017-12-29T08:42:36.504Z,21.70
2017-12-29T08:45:04.922Z,24.27
2017-12-29T08:47:34.332Z,25.43
2017-12-29T08:50:02.823Z,28.60
2017-12-29T08:52:31.222Z,32.40
2017-12-29T08:54:59.570Z,34.87
2017-12-29T08:57:28.924Z,35.37
2017-12-29T08:59:57.322Z,40.63
2017-12-29T09:02:25.734Z,39.43
2017-12-29T09:04:54.986Z,46.70
2017-12-29T09:07:23.376Z,44.70
2017-12-29T09:09:51.950Z,42.60
2017-12-29T09:12:20.268Z,40.00
2017-12-29T09:14:48.694Z,43.03
2017-12-29T09:17:17.024Z,48.90
2017-12-29T09:19:45.468Z,43.63
2017-12-29T09:22:13.794Z,50.50
2017-12-29T09:24:42.948Z,44.03
2017-12-29T09:27:11.282Z,36.53
2017-12-29T09:29:40.443Z,36.80
2017-12-29T09:32:09.640Z,38.77
2017-12-29T09:34:38.034Z,34.40
2017-12-29T09:37:06.450Z,34.20
2017-12-29T09:39:34.825Z,29.13
2017-12-29T09:42:03.976Z,29.60
2017-12-29T09:44:32.316Z,28.90
2017-12-29T09:47:01.509Z,28.13
2017-12-29T09:49:30.651Z,26.47
2017-12-29T09:51:58.982Z,26.87
2017-12-29T09:54:28.157Z,25.60
2017-12-29T09:56:56.707Z,24.30
2017-12-29T09:59:25.120Z,23.23
2017-12-29T10:01:53.572Z,24.57
2017-12-29T10:04:21.902Z,23.00
2017-12-29T10:06:51.154Z,22.40
2017-12-29T10:09:19.610Z,25.53
2017-12-29T10:11:47.958Z,25.90
2017-12-29T10:14:16.405Z,28.00
2017-12-29T10:16:44.745Z,22.70
2017-12-29T10:19:13.084Z,24.47
2017-12-29T10:21:41.384Z,26.40
2017-12-29T10:24:09.825Z,21.97
2017-12-29T10:26:38.299Z,22.90
2017-12-29T10:29:06.727Z,23.17
2017-12-29T10:31:35.790Z,21.20
2017-12-29T10:34:04.252Z,23.57
2017-12-29T10:36:33.355Z,20.60
2017-12-29T10:39:01.892Z,19.27
2017-12-29T10:41:30.210Z,23.70
2017-12-29T10:43:58.617Z,19.07
2017-12-29T10:46:27.003Z,19.47
2017-12-29T10:48:55.346Z,18.33
2017-12-29T10:51:23.725Z,23.37
2017-12-29T10:53:52.992Z,21.10
2017-12-29T10:56:21.365Z,20.17
2017-12-29T10:58:49.808Z,19.20
2017-12-29T11:01:18.176Z,21.50
2017-12-29T11:03:47.337Z,22.17
2017-12-29T11:06:15.674Z,18.47
2017-12-29T11:08:44.770Z,23.07
2017-12-29T11:11:13.213Z,19.63
2017-12-29T11:13:41.540Z,21.17
2017-12-29T11:16:11.506Z,19.43
2017-12-29T11:18:40.709Z,16.50
2017-12-29T11:21:09.195Z,18.63
2017-12-29T11:23:37.574Z,19.03
2017-12-29T11:26:05.969Z,20.93
2017-12-29T11:28:34.349Z,17.33
2017-12-29T11:31:02.690Z,22.33
2017-12-29T11:33:31.080Z,19.30
2017-12-29T11:35:59.509Z,18.83
2017-12-29T11:38:27.892Z,19.07
2017-12-29T11:40:56.273Z,16.87
2017-12-29T11:43:24.629Z,19.43
2017-12-29T11:45:53.059Z,18.37
2017-12-29T11:48:22.194Z,18.73
2017-12-29T11:50:50.594Z,18.83
2017-12-29T11:53:19.625Z,20.00
2017-12-29T11:55:48.734Z,18.30
2017-12-29T11:58:17.865Z,22.47
2017-12-29T12:00:46.284Z,18.93
2017-12-29T12:03:14.628Z,18.37
2017-12-29T12:05:42.988Z,22.33
2017-12-29T12:08:12.009Z,17.43
2017-12-29T12:10:40.446Z,15.73
2017-12-29T12:13:08.803Z,20.13
2017-12-29T12:15:38.106Z,24.47
2017-12-29T12:18:06.559Z,14.83
2017-12-29T12:20:34.923Z,18.87
2017-12-29T12:23:04.329Z,19.40
2017-12-29T12:25:32.766Z,16.63
2017-12-29T12:28:01.142Z,17.80
2017-12-29T12:30:29.475Z,15.43
2017-12-29T12:32:57.852Z,17.30
2017-12-29T12:35:27.082Z,19.63
2017-12-29T12:37:55.417Z,17.43
2017-12-29T12:40:24.525Z,21.87
2017-12-29T12:42:52.871Z,15.20
2017-12-29T12:45:21.203Z,14.80
2017-12-29T12:47:49.650Z,14.63
2017-12-29T12:50:18.056Z,18.50
2017-12-29T12:52:47.441Z,12.77
2017-12-29T12:55:15.807Z,13.40
2017-12-29T12:57:44.152Z,13.87
2017-12-29T13:00:12.523Z,17.40
2017-12-29T13:02:40.894Z,14.30
2017-12-29T13:05:09.223Z,15.27
2017-12-29T13:07:37.583Z,17.30
2017-12-29T13:10:06.437Z,13.80
2017-12-29T13:12:34.813Z,17.03
2017-12-29T13:15:03.954Z,12.43
2017-12-29T13:17:34.615Z,13.60
2017-12-29T13:20:03.503Z,13.77
2017-12-29T13:22:31.942Z,16.33
2017-12-29T13:25:01.981Z,13.40
2017-12-29T13:27:31.253Z,17.30
2017-12-29T13:30:00.424Z,14.63
2017-12-29T13:32:28.819Z,11.90
2017-12-29T13:34:58.293Z,12.57
2017-12-29T13:37:26.736Z,11.27
2017-12-29T13:39:58.129Z,10.40
2017-12-29T13:42:26.437Z,12.33
2017-12-29T13:44:55.601Z,12.60
2017-12-29T13:47:23.978Z,11.37
2017-12-29T13:49:52.317Z,9.33
2017-12-29T13:52:21.448Z,11.93
2017-12-29T13:54:49.820Z,10.27
2017-12-29T13:57:18.157Z,11.83
2017-12-29T13:59:46.554Z,10.60
2017-12-29T14:02:15.771Z,9.30
2017-12-29T14:04:44.871Z,11.50
2017-12-29T14:07:13.275Z,9.87
2017-12-29T14:09:41.681Z,9.83
2017-12-29T14:12:10.065Z,10.50
2017-12-29T14:14:38.475Z,11.40
2017-12-29T14:17:06.934Z,9.13
2017-12-29T14:19:35.371Z,9.10
2017-12-29T14:22:03.744Z,9.40
2017-12-29T14:24:32.122Z,10.70
2017-12-29T14:27:00.479Z,12.20
2017-12-29T14:29:28.803Z,10.43
2017-12-29T14:31:57.165Z,11.37
2017-12-29T14:34:27.305Z,9.07
2017-12-29T14:36:55.629Z,9.90
2017-12-29T14:39:24.921Z,11.87
2017-12-29T14:41:53.246Z,12.03
2017-12-29T14:44:21.606Z,11.10
2017-12-29T14:46:50.623Z,12.23
2017-12-29T14:49:19.738Z,12.07
2017-12-29T14:51:48.110Z,11.27
2017-12-29T14:54:17.305Z,12.93
2017-12-29T14:56:47.076Z,12.30
2017-12-29T14:59:15.480Z,11.97
2017-12-29T15:01:43.819Z,12.87
2017-12-29T15:04:12.228Z,13.13
2017-12-29T15:06:40.577Z,14.40
2017-12-29T15:09:08.962Z,13.63
2017-12-29T15:11:37.665Z,14.97
2017-12-29T15:14:06.105Z,20.63
2017-12-29T15:16:35.290Z,17.00
2017-12-29T15:19:03.645Z,17.30
2017-12-29T15:21:32.003Z,19.10
2017-12-29T15:24:00.876Z,15.80
2017-12-29T15:26:30.167Z,18.27
2017-12-29T15:28:59.323Z,15.97
2017-12-29T15:31:28.535Z,16.60
2017-12-29T15:33:57.697Z,19.00
2017-12-29T15:36:26.813Z,17.90
2017-12-29T15:38:55.198Z,20.60
2017-12-29T15:41:24.422Z,18.93
2017-12-29T15:43:53.529Z,17.97
2017-12-29T15:46:22.675Z,19.03
2017-12-29T15:48:51.085Z,16.00
2017-12-29T15:51:24.047Z,21.40
2017-12-29T15:53:52.622Z,18.13
2017-12-29T15:56:21.805Z,18.67
2017-12-29T15:58:50.923Z,21.90
2017-12-29T16:01:26.063Z,19.47
2017-12-29T16:03:55.035Z,21.10
2017-12-29T16:06:23.820Z,17.67
2017-12-29T16:08:53.640Z,20.43
2017-12-29T16:11:22.264Z,24.30
2017-12-29T16:13:50.696Z,22.83
2017-12-29T16:16:19.935Z,19.13
2017-12-29T16:18:49.703Z,23.27
2017-12-29T16:21:18.853Z,26.67
2017-12-29T16:23:48.794Z,21.27
2017-12-29T16:26:17.292Z,22.77
2017-12-29T16:28:46.203Z,22.03
2017-12-29T16:31:15.251Z,22.93
2017-12-29T16:33:44.887Z,23.03
2017-12-29T16:36:13.282Z,23.67
2017-12-29T16:38:41.649Z,28.80
2017-12-29T16:41:10.072Z,28.00
2017-12-29T16:43:38.439Z,27.20
2017-12-29T16:46:07.483Z,27.47
2017-12-29T16:48:35.876Z,31.50
2017-12-29T16:51:04.241Z,30.70
2017-12-29T16:53:32.831Z,27.87
2017-12-29T16:56:01.234Z,28.37
2017-12-29T16:58:30.426Z,30.30
2017-12-29T17:01:00.210Z,32.17
2017-12-29T17:03:28.596Z,28.43
2017-12-29T17:05:58.018Z,28.07
2017-12-29T17:08:26.355Z,17.00
2017-12-29T17:10:54.710Z,17.67
2017-12-29T17:13:23.100Z,20.27
2017-12-29T17:15:51.704Z,26.57
2017-12-29T17:18:21.815Z,24.63
2017-12-29T17:20:50.930Z,22.83
2017-12-29T17:23:21.136Z,23.53
2017-12-29T17:25:53.136Z,25.07
2017-12-29T17:28:21.509Z,28.73
2017-12-29T17:30:50.027Z,25.27
2017-12-29T17:33:18.372Z,23.17
2017-12-29T17:35:46.828Z,24.00
2017-12-29T17:38:15.262Z,23.53
2017-12-29T17:40:43.646Z,24.20
2017-12-29T17:43:12.674Z,26.80
2017-12-29T17:45:41.036Z,25.80
2017-12-29T17:48:09.386Z,23.07
2017-12-29T17:50:37.702Z,24.00
2017-12-29T17:53:06.890Z,26.13
2017-12-29T17:55:35.276Z,23.87
2017-12-29T17:58:03.684Z,28.97
2017-12-29T18:00:32.106Z,27.83
2017-12-29T18:03:01.190Z,16.40
2017-12-29T18:05:29.644Z,17.53
2017-12-29T18:07:57.945Z,15.80
2017-12-29T18:10:26.380Z,14.03
2017-12-29T18:12:54.824Z,16.20
2017-12-29T18:15:24.274Z,19.67
2017-12-29T18:17:53.346Z,13.00
2017-12-29T18:20:21.886Z,12.57
2017-12-29T18:22:50.870Z,18.13
2017-12-29T18:25:19.220Z,12.13
2017-12-29T18:27:47.682Z,21.70
2017-12-29T18:30:16.052Z,19.97
2017-12-29T18:32:45.508Z,14.60
2017-12-29T18:35:14.002Z,10.70
2017-12-29T18:37:42.403Z,13.00
2017-12-29T18:40:10.948Z,18.23
2017-12-29T18:42:39.329Z,20.70
2017-12-29T18:45:07.813Z,12.87
2017-12-29T18:47:36.184Z,25.40
2017-12-29T18:50:04.615Z,14.17
2017-12-29T18:52:32.968Z,19.23
2017-12-29T18:55:01.334Z,11.57
2017-12-29T18:57:29.974Z,19.70
2017-12-29T18:59:58.322Z,15.10
2017-12-29T19:02:26.690Z,9.17
2017-12-29T19:04:55.128Z,12.40
2017-12-29T19:07:23.506Z,20.27
2017-12-29T19:09:51.975Z,13.17
2017-12-29T19:12:20.470Z,12.67
2017-12-29T19:14:48.766Z,11.47
2017-12-29T19:17:17.145Z,13.30
2017-12-29T19:19:48.509Z,16.90
2017-12-29T19:22:16.814Z,17.57
2017-12-29T19:24:46.362Z,18.87
2017-12-29T19:27:15.470Z,15.93
2017-12-29T19:29:43.954Z,17.93
2017-12-29T19:32:12.826Z,13.13
2017-12-29T19:34:43.676Z,11.20
2017-12-29T19:37:12.233Z,15.57
2017-12-29T19:39:42.853Z,16.47
2017-12-29T19:42:11.278Z,12.73
2017-12-29T19:44:39.611Z,15.87
2017-12-29T19:47:09.225Z,11.60
2017-12-29T19:49:38.366Z,11.40
2017-12-29T19:52:06.858Z,13.23
2017-12-29T19:54:35.961Z,10.77
2017-12-29T19:57:04.376Z,14.97
2017-12-29T19:59:33.219Z,15.77
2017-12-29T20:02:01.628Z,13.50
2017-12-29T20:04:30.069Z,12.47
2017-12-29T20:06:58.402Z,9.20
2017-12-29T20:09:27.454Z,12.50
2017-12-29T20:11:55.968Z,14.07
2017-12-29T20:14:24.296Z,10.00
2017-12-29T20:16:54.071Z,12.03
2017-12-29T20:19:23.193Z,9.93
2017-12-29T20:21:52.948Z,8.13
2017-12-29T20:24:22.358Z,11.27
2017-12-29T20:26:52.380Z,12.70
2017-12-29T20:29:21.675Z,14.90
2017-12-29T20:31:51.197Z,13.30
2017-12-29T20:34:19.780Z,14.87
2017-12-29T20:36:48.175Z,15.93
2017-12-29T20:39:16.699Z,14.53
2017-12-29T20:41:45.534Z,16.47
2017-12-29T20:44:13.953Z,13.80
2017-12-29T20:46:42.354Z,19.10
2017-12-29T20:49:10.747Z,18.80
2017-12-29T20:51:39.942Z,14.03
2017-12-29T20:54:08.252Z,17.50
2017-12-29T20:56:36.765Z,22.13
2017-12-29T20:59:05.120Z,15.52
2017-12-29T21:01:33.441Z,11.37
2017-12-29T21:04:02.498Z,16.30
2017-12-29T21:06:31.486Z,20.13
2017-12-29T21:08:59.943Z,18.53
2017-12-29T21:11:28.242Z,16.07
2017-12-29T21:13:57.353Z,20.27
2017-12-29T21:16:26.529Z,10.97
2017-12-29T21:18:55.075Z,15.17
2017-12-29T21:21:23.388Z,22.97
2017-12-29T21:23:53.561Z,14.23
2017-12-29T21:26:22.765Z,17.00
2017-12-29T21:28:51.082Z,22.73
2017-12-29T21:31:20.339Z,21.80
2017-12-29T21:33:49.561Z,13.30
2017-12-29T21:36:18.719Z,24.53
2017-12-29T21:38:47.835Z,20.97
2017-12-29T21:41:16.259Z,24.00
2017-12-29T21:43:44.653Z,19.50
2017-12-29T21:46:13.779Z,31.67
2017-12-29T21:48:42.886Z,21.07
2017-12-29T21:51:12.236Z,24.03
2017-12-29T21:53:40.614Z,19.70
2017-12-29T21:56:09.031Z,15.50
2017-12-29T21:58:37.448Z,16.90
2017-12-29T22:01:05.835Z,15.60
2017-12-29T22:03:34.180Z,17.63
2017-12-29T22:06:02.763Z,20.20
2017-12-29T22:08:31.131Z,14.07
2017-12-29T22:10:59.454Z,18.97
2017-12-29T22:13:28.530Z,16.53
2017-12-29T22:15:57.689Z,26.00
2017-12-29T22:18:26.993Z,18.37
2017-12-29T22:20:55.454Z,18.80
2017-12-29T22:23:23.943Z,14.80
2017-12-29T22:25:52.394Z,22.47
2017-12-29T22:28:20.875Z,20.97
2017-12-29T22:30:50.031Z,21.40
2017-12-29T22:33:18.449Z,20.43
2017-12-29T22:35:47.701Z,17.73
2017-12-29T22:38:16.033Z,17.73
2017-12-29T22:40:44.493Z,22.17
2017-12-29T22:43:12.909Z,28.50
2017-12-29T22:45:42.140Z,20.00
2017-12-29T22:48:10.515Z,16.93
2017-12-29T22:50:38.862Z,25.67
2017-12-29T22:53:07.253Z,17.83
2017-12-29T22:55:35.632Z,14.20
2017-12-29T22:58:04.549Z,25.33
2017-12-29T23:00:32.903Z,19.30
2017-12-29T23:03:01.288Z,23.87
2017-12-29T23:05:29.645Z,19.70
2017-12-29T23:07:58.045Z,27.33
2017-12-29T23:10:26.867Z,26.23
2017-12-29T23:12:55.258Z,22.80
2017-12-29T23:15:23.574Z,20.67
2017-12-29T23:17:51.905Z,15.43
2017-12-29T23:20:20.326Z,17.40
2017-12-29T23:22:48.751Z,17.20
2017-12-29T23:25:17.091Z,23.30
2017-12-29T23:27:45.395Z,28.13
2017-12-29T23:30:13.733Z,19.13
2017-12-29T23:32:42.091Z,23.43
2017-12-29T23:35:10.511Z,23.90
2017-12-29T23:37:39.201Z,21.53
2017-12-29T23:40:07.603Z,17.37
2017-12-29T23:42:35.989Z,22.97
2017-12-29T23:45:04.336Z,20.00
2017-12-29T23:47:32.647Z,16.57
2017-12-29T23:50:01.023Z,20.60
2017-12-29T23:52:29.374Z,25.27
2017-12-29T23:54:57.730Z,18.83
2017-12-29T23:57:26.831Z,25.20
2017-12-29T23:59:55.925Z,24.37
